Time;durP1;ratioP1;P1;durP2;ratioP2;P2;SDS_P1;SDS_P2;PMS_P1;PMS_P2;Temp;Humidity;BMP_temperature;BMP_pressure;BME280_temperature;BME280_humidity;BME280_pressure;Samples;Min_cycle;Max_cycle;Signal;HPM_P1;HPM_P2
2023/01/29 00:01:08;;;;;;;32.07;15.53;;;-2.20;99.90;;;;;;5052849;28;20770;-69
2023/01/29 00:03:34;;;;;;;27.57;14.00;;;-2.20;99.90;;;;;;5052648;28;20222;-69
2023/01/29 00:06:05;;;;;;;24.53;13.03;;;-2.20;99.90;;;;;;5052442;28;20405;-70
2023/01/29 00:08:33;;;;;;;32.43;12.60;;;-2.30;99.90;;;;;;5052557;28;20448;-69
2023/01/29 00:11:03;;;;;;;33.50;15.30;;;-2.30;99.90;;;;;;5052474;28;20464;-69
2023/01/29 00:13:28;;;;;;;25.03;13.10;;;-2.30;99.90;;;;;;5052573;28;20748;-70
2023/01/29 00:15:57;;;;;;;28.03;12.80;;;-2.30;99.90;;;;;;5052291;28;20484;-71
2023/01/29 00:18:24;;;;;;;25.10;13.53;;;-2.30;99.90;;;;;;5047996;28;20192;-70
2023/01/29 00:20:50;;;;;;;26.17;11.70;;;-2.30;99.90;;;;;;5052503;28;20488;-69
2023/01/29 00:23:15;;;;;;;24.90;11.33;;;-2.30;99.90;;;;;;5052490;28;20540;-69
2023/01/29 00:25:41;;;;;;;26.77;12.93;;;-2.30;99.90;;;;;;5052251;28;20500;-70
2023/01/29 00:28:07;;;;;;;26.17;14.23;;;-2.30;99.90;;;;;;5052264;28;20249;-68
2023/01/29 00:30:33;;;;;;;25.83;11.90;;;-2.30;99.90;;;;;;5052197;28;20530;-71
2023/01/29 00:32:58;;;;;;;28.90;14.80;;;-2.30;99.90;;;;;;5051007;28;20265;-70
2023/01/29 00:35:24;;;;;;;25.90;11.90;;;-2.30;99.90;;;;;;5051972;28;20174;-70
2023/01/29 00:37:49;;;;;;;30.53;13.40;;;-2.30;99.90;;;;;;5052207;28;20167;-70
2023/01/29 00:40:15;;;;;;;25.93;12.97;;;-2.30;99.90;;;;;;5051990;28;20611;-70
2023/01/29 00:45:28;;;;;;;31.20;13.20;;;-2.30;99.90;;;;;;5045129;28;20680;-70
2023/01/29 00:47:53;;;;;;;22.40;10.37;;;-2.30;99.90;;;;;;5035793;28;20410;-70
2023/01/29 00:50:19;;;;;;;20.47;11.57;;;-2.30;99.90;;;;;;5052954;28;20193;-70
2023/01/29 00:52:45;;;;;;;31.30;13.60;;;-2.30;99.90;;;;;;5063042;28;20220;-70
2023/01/29 00:55:11;;;;;;;29.60;12.57;;;-2.30;99.90;;;;;;5051531;28;20171;-70
2023/01/29 00:57:37;;;;;;;30.93;11.33;;;-2.30;99.90;;;;;;5051914;28;20242;-70
2023/01/29 01:00:06;;;;;;;28.10;11.83;;;-2.30;99.90;;;;;;5051793;28;20429;-70
2023/01/29 01:05:17;;;;;;;23.23;11.37;;;-2.30;99.90;;;;;;5051961;28;20408;-71
2023/01/29 01:07:47;;;;;;;19.37;10.80;;;-2.40;99.90;;;;;;5051702;28;20402;-71
2023/01/29 01:10:20;;;;;;;27.60;11.27;;;-2.40;99.90;;;;;;5051648;28;20457;-70
2023/01/29 01:12:46;;;;;;;26.37;11.60;;;-2.40;99.90;;;;;;5051884;28;20390;-70
2023/01/29 01:15:12;;;;;;;22.40;12.00;;;-2.40;99.90;;;;;;5051594;28;20452;-70
2023/01/29 01:17:37;;;;;;;25.17;10.00;;;-2.40;99.90;;;;;;5042064;28;20850;-71
2023/01/29 01:20:04;;;;;;;27.47;14.20;;;-2.40;99.90;;;;;;5031820;28;20278;-71
2023/01/29 01:22:30;;;;;;;26.80;12.97;;;-2.40;99.90;;;;;;5031886;28;20633;-71
2023/01/29 01:24:56;;;;;;;31.23;12.97;;;-2.40;99.90;;;;;;5031450;28;20822;-70
2023/01/29 01:27:21;;;;;;;27.70;13.20;;;-2.50;99.90;;;;;;5031808;28;20410;-71
2023/01/29 01:29:47;;;;;;;26.50;12.00;;;-2.50;99.90;;;;;;5031570;28;20195;-70
2023/01/29 01:32:13;;;;;;;29.67;14.47;;;-2.50;99.90;;;;;;5031999;28;20633;-70
2023/01/29 01:34:38;;;;;;;25.93;12.53;;;-2.50;99.90;;;;;;5031366;28;20247;-70
2023/01/29 01:37:04;;;;;;;20.67;9.50;;;-2.50;99.90;;;;;;5031755;28;20168;-70
2023/01/29 01:39:29;;;;;;;29.80;12.17;;;-2.50;99.90;;;;;;5031533;28;20589;-70
2023/01/29 01:41:55;;;;;;;25.87;12.73;;;-2.50;99.90;;;;;;5031726;28;20222;-71
2023/01/29 01:44:48;;;;;;;23.43;12.17;;;-2.50;99.90;;;;;;5031307;28;20548;-71
2023/01/29 01:47:16;;;;;;;33.73;12.93;;;-2.60;99.90;;;;;;5039346;28;20550;-71
2023/01/29 01:49:42;;;;;;;31.33;13.20;;;-2.60;99.90;;;;;;5051127;28;20444;-70
2023/01/29 01:52:09;;;;;;;23.77;12.00;;;-2.60;99.90;;;;;;5051562;28;20424;-71
2023/01/29 01:54:35;;;;;;;27.63;12.47;;;-2.60;99.90;;;;;;5051292;28;20408;-71
2023/01/29 01:57:15;;;;;;;28.63;12.47;;;-2.60;99.90;;;;;;5053495;28;20876;-70
2023/01/29 01:59:44;;;;;;;29.97;12.10;;;-2.60;99.90;;;;;;5055279;28;20683;-71
2023/01/29 02:10:36;;;;;;;32.63;15.10;;;-2.70;99.90;;;;;;5055024;28;20471;-70
2023/01/29 02:13:03;;;;;;;32.70;15.13;;;-2.60;99.90;;;;;;5054868;28;20436;-70
2023/01/29 02:15:29;;;;;;;28.03;14.30;;;-2.60;99.90;;;;;;5054723;28;20405;-70
2023/01/29 02:17:54;;;;;;;29.23;13.90;;;-2.60;99.90;;;;;;5038757;28;20425;-70
2023/01/29 02:20:25;;;;;;;32.40;15.60;;;-2.60;99.90;;;;;;5034774;28;20183;-70
2023/01/29 02:22:58;;;;;;;26.10;14.33;;;-2.60;99.90;;;;;;5034859;28;20160;-70
2023/01/29 02:25:58;;;;;;;34.03;16.20;;;-2.60;99.90;;;;;;5034377;28;20430;-70
2023/01/29 02:28:47;;;;;;;41.80;16.90;;;-2.60;99.90;;;;;;5034573;28;20431;-70
2023/01/29 02:31:30;;;;;;;35.27;14.77;;;-2.60;99.90;;;;;;5034772;28;20452;-70
2023/01/29 02:34:05;;;;;;;30.80;13.67;;;-2.60;99.90;;;;;;5034000;28;20406;-70
2023/01/29 02:36:49;;;;;;;22.40;13.20;;;-2.60;99.90;;;;;;5034289;28;20441;-70
2023/01/29 02:39:36;;;;;;;33.47;13.50;;;-2.60;99.90;;;;;;5034382;28;20422;-70
2023/01/29 02:42:28;;;;;;;21.17;12.47;;;-2.60;99.90;;;;;;5034474;28;20402;-70
2023/01/29 02:45:04;;;;;;;25.90;13.53;;;-2.60;99.90;;;;;;5033596;28;20421;-71
2023/01/29 02:47:41;;;;;;;31.60;14.87;;;-2.70;99.90;;;;;;5041169;28;20409;-70
2023/01/29 02:50:42;;;;;;;26.77;14.17;;;-2.70;99.90;;;;;;5053902;28;20879;-70
2023/01/29 02:53:17;;;;;;;35.77;15.57;;;-2.70;99.90;;;;;;5054255;28;20405;-71
2023/01/29 02:56:12;;;;;;;27.40;16.40;;;-2.70;99.90;;;;;;5053805;28;20393;-71
2023/01/29 02:58:44;;;;;;;35.07;16.77;;;-2.70;99.90;;;;;;5050813;28;20437;-71
2023/01/29 03:01:29;;;;;;;35.70;16.23;;;-2.70;99.90;;;;;;5054011;28;20402;-71
2023/01/29 03:04:02;;;;;;;32.50;14.90;;;-2.70;99.90;;;;;;5054120;28;20776;-70
2023/01/29 03:06:42;;;;;;;28.33;14.37;;;-2.70;99.90;;;;;;5053583;28;20505;-71
2023/01/29 03:09:21;;;;;;;27.70;16.80;;;-2.70;99.90;;;;;;5063461;28;20424;-70
2023/01/29 03:11:53;;;;;;;30.43;13.73;;;-2.70;99.90;;;;;;5054148;28;20417;-70
2023/01/29 03:15:10;;;;;;;27.40;14.70;;;-2.70;99.90;;;;;;5052497;28;20440;-71
2023/01/29 03:17:15;;;;;;;35.83;16.20;;;-2.70;99.90;;;;;;5038504;28;20410;-70
2023/01/29 03:19:45;;;;;;;32.43;14.07;;;-2.70;99.90;;;;;;5033582;28;20521;-70
2023/01/29 03:22:15;;;;;;;37.53;17.53;;;-2.70;99.90;;;;;;5033651;28;20203;-71
2023/01/29 03:33:19;;;;;;;32.93;17.63;;;-2.80;99.90;;;;;;5033506;28;20784;-71
2023/01/29 03:35:58;;;;;;;31.70;14.63;;;-2.80;99.90;;;;;;5033164;28;20438;-70
2023/01/29 03:38:28;;;;;;;33.57;16.60;;;-2.90;99.90;;;;;;5033218;28;20426;-71
2023/01/29 03:41:31;;;;;;;30.67;16.60;;;-2.90;99.90;;;;;;5032066;28;20547;-71
2023/01/29 03:44:25;;;;;;;37.33;15.63;;;-2.80;99.90;;;;;;5031860;28;20459;-71
2023/01/29 03:47:03;;;;;;;35.80;15.83;;;-2.80;99.90;;;;;;5037509;28;20422;-70
2023/01/29 03:49:34;;;;;;;33.33;15.60;;;-2.80;99.90;;;;;;5032965;28;20814;-71
2023/01/29 03:52:24;;;;;;;23.70;14.60;;;-2.80;99.90;;;;;;5033198;28;20425;-71
2023/01/29 03:54:56;;;;;;;25.67;13.87;;;-2.80;99.90;;;;;;5032650;28;20407;-71
2023/01/29 03:57:33;;;;;;;32.63;16.40;;;-2.80;99.90;;;;;;5033103;28;20876;-71
2023/01/29 04:00:06;;;;;;;33.67;14.37;;;-2.80;99.90;;;;;;5032867;28;20417;-70
2023/01/29 04:02:41;;;;;;;32.80;14.77;;;-2.80;99.90;;;;;;5032793;28;20771;-71
2023/01/29 04:05:18;;;;;;;29.90;15.53;;;-2.80;99.90;;;;;;5032456;28;20413;-70
2023/01/29 04:07:44;;;;;;;24.47;13.80;;;-2.70;99.90;;;;;;5032844;28;20409;-70
2023/01/29 04:10:15;;;;;;;30.60;14.17;;;-2.80;99.90;;;;;;5032417;28;20502;-70
2023/01/29 04:12:55;;;;;;;31.30;13.30;;;-2.70;99.90;;;;;;5032724;28;20493;-70
2023/01/29 04:15:23;;;;;;;37.77;14.80;;;-2.70;99.90;;;;;;5032285;28;20425;-71
2023/01/29 04:17:51;;;;;;;28.77;14.30;;;-2.70;99.90;;;;;;5032664;28;20413;-70
2023/01/29 04:20:18;;;;;;;30.67;15.47;;;-2.70;99.90;;;;;;5050642;28;20454;-70
2023/01/29 04:22:49;;;;;;;30.83;13.37;;;-2.70;99.90;;;;;;5057312;28;20762;-70
2023/01/29 04:25:25;;;;;;;29.23;14.07;;;-2.60;99.90;;;;;;5052162;28;20437;-71
2023/01/29 04:28:05;;;;;;;34.00;16.80;;;-2.60;99.90;;;;;;5052290;28;20398;-70
2023/01/29 04:31:05;;;;;;;36.43;16.60;;;-2.70;99.90;;;;;;5052217;28;20527;-71
2023/01/29 04:33:43;;;;;;;28.37;13.03;;;-2.80;99.90;;;;;;5039946;28;20423;-70
2023/01/29 04:36:17;;;;;;;36.20;15.37;;;-2.80;99.90;;;;;;5035094;28;20417;-71
2023/01/29 04:39:09;;;;;;;31.37;14.70;;;-2.90;99.90;;;;;;5032050;28;20425;-71
2023/01/29 04:42:02;;;;;;;33.60;14.70;;;-2.90;99.90;;;;;;5032282;28;20938;-70
2023/01/29 04:44:38;;;;;;;30.20;12.60;;;-2.80;99.90;;;;;;5031867;28;20410;-71
2023/01/29 04:47:08;;;;;;;33.10;14.83;;;-2.80;99.90;;;;;;5051812;28;20425;-70
2023/01/29 04:49:40;;;;;;;35.37;14.80;;;-2.80;99.90;;;;;;5050363;28;20464;-71
2023/01/29 04:52:20;;;;;;;29.50;15.40;;;-2.70;99.90;;;;;;5052004;28;20492;-70
2023/01/29 04:54:51;;;;;;;33.63;15.23;;;-2.70;99.90;;;;;;5051637;28;20404;-70
2023/01/29 04:57:41;;;;;;;27.47;13.40;;;-2.70;99.90;;;;;;5050668;28;20421;-70
2023/01/29 05:00:13;;;;;;;26.87;13.93;;;-2.70;99.90;;;;;;5047674;28;20486;-71
2023/01/29 05:02:40;;;;;;;30.70;13.43;;;-2.70;99.90;;;;;;5052017;28;20493;-70
2023/01/29 05:05:08;;;;;;;37.60;16.17;;;-2.70;99.90;;;;;;5050163;28;20405;-71
2023/01/29 05:07:37;;;;;;;25.90;12.53;;;-2.70;99.90;;;;;;5051852;28;20413;-71
2023/01/29 05:10:05;;;;;;;26.83;13.33;;;-2.70;99.90;;;;;;5051480;28;20594;-71
2023/01/29 05:12:32;;;;;;;28.50;15.57;;;-2.70;99.90;;;;;;5051875;28;20895;-70
2023/01/29 05:15:01;;;;;;;22.27;12.63;;;-2.80;99.90;;;;;;5051320;28;20408;-70
2023/01/29 05:17:27;;;;;;;47.53;17.23;;;-2.90;99.90;;;;;;5051689;28;20401;-70
2023/01/29 05:19:54;;;;;;;31.03;15.17;;;-2.90;99.90;;;;;;5051613;28;20777;-70
2023/01/29 05:22:22;;;;;;;34.00;14.10;;;-2.90;99.90;;;;;;5051724;28;20492;-70
2023/01/29 05:24:48;;;;;;;36.57;14.43;;;-2.90;99.90;;;;;;5051457;28;20405;-70
2023/01/29 05:30:11;;;;;;;25.23;12.57;;;-2.70;99.90;;;;;;5051528;28;20538;-70
2023/01/29 05:32:38;;;;;;;28.47;13.03;;;-2.80;99.90;;;;;;5067021;28;20847;-70
2023/01/29 05:35:04;;;;;;;34.30;15.73;;;-2.70;99.90;;;;;;5045282;28;20529;-70
2023/01/29 05:37:30;;;;;;;30.07;14.70;;;-2.70;99.90;;;;;;5055241;28;20420;-70
2023/01/29 05:39:55;;;;;;;32.17;13.83;;;-2.70;99.90;;;;;;5055531;28;20433;-70
2023/01/29 05:42:21;;;;;;;37.80;15.97;;;-2.70;99.90;;;;;;5054151;28;20186;-70
2023/01/29 05:44:46;;;;;;;25.03;12.20;;;-2.80;99.90;;;;;;5054147;28;20167;-70
2023/01/29 05:47:12;;;;;;;30.93;16.80;;;-2.70;99.90;;;;;;5035476;28;20208;-70
2023/01/29 05:49:37;;;;;;;28.50;14.57;;;-2.70;99.90;;;;;;5035262;28;20681;-71
2023/01/29 05:52:03;;;;;;;23.47;12.77;;;-2.80;99.90;;;;;;5035472;28;20661;-71
2023/01/29 05:54:29;;;;;;;33.77;13.03;;;-2.80;99.90;;;;;;5034900;28;20167;-70
2023/01/29 05:56:54;;;;;;;33.77;16.50;;;-2.80;99.90;;;;;;5035354;28;20263;-71
2023/01/29 05:59:20;;;;;;;25.17;12.13;;;-2.70;99.90;;;;;;5035028;28;20559;-70
2023/01/29 06:01:45;;;;;;;38.87;17.00;;;-2.80;99.90;;;;;;5035305;28;20175;-70
2023/01/29 06:04:11;;;;;;;28.87;13.30;;;-2.90;99.90;;;;;;5035014;28;20164;-70
2023/01/29 06:06:36;;;;;;;33.43;14.30;;;-2.80;99.90;;;;;;5034914;28;20646;-70
2023/01/29 06:09:02;;;;;;;31.50;16.50;;;-2.80;99.90;;;;;;5034892;28;20712;-70
2023/01/29 06:11:28;;;;;;;30.87;15.27;;;-2.80;99.90;;;;;;5035125;28;20677;-70
2023/01/29 06:13:53;;;;;;;23.43;12.70;;;-2.80;99.90;;;;;;5034898;28;20463;-70
2023/01/29 06:16:19;;;;;;;30.73;14.13;;;-2.80;99.90;;;;;;5034585;28;20638;-70
2023/01/29 06:18:44;;;;;;;27.67;14.00;;;-2.80;99.90;;;;;;5034783;28;20207;-71
2023/01/29 06:21:12;;;;;;;34.53;13.90;;;-2.90;99.90;;;;;;5034668;28;20195;-71
2023/01/29 06:23:38;;;;;;;39.70;16.90;;;-2.80;99.90;;;;;;5034859;28;20168;-70
2023/01/29 06:26:06;;;;;;;27.10;13.20;;;-2.80;99.90;;;;;;5034378;28;20400;-71
2023/01/29 06:28:31;;;;;;;31.90;15.10;;;-2.80;99.90;;;;;;5037058;28;20734;-70
2023/01/29 06:30:58;;;;;;;31.70;13.67;;;-2.90;99.90;;;;;;5041031;28;20449;-70
2023/01/29 06:33:25;;;;;;;30.90;14.90;;;-2.90;99.90;;;;;;5034619;28;20167;-69
2023/01/29 06:36:02;;;;;;;34.13;13.77;;;-3.00;99.90;;;;;;5034357;28;20457;-69
2023/01/29 06:38:28;;;;;;;26.10;14.63;;;-3.00;99.90;;;;;;5034550;28;20422;-70
2023/01/29 06:40:54;;;;;;;35.20;16.70;;;-3.00;99.90;;;;;;5033211;28;20959;-70
2023/01/29 06:43:21;;;;;;;34.03;15.33;;;-3.00;99.90;;;;;;5053412;28;20424;-70
2023/01/29 06:45:52;;;;;;;27.50;16.63;;;-3.00;99.90;;;;;;5049229;28;20414;-71
2023/01/29 06:48:18;;;;;;;35.20;17.20;;;-2.90;99.90;;;;;;5034119;28;20467;-70
2023/01/29 06:50:43;;;;;;;37.20;14.13;;;-2.80;99.90;;;;;;5034195;28;20540;-70
2023/01/29 06:53:09;;;;;;;29.60;15.90;;;-2.70;99.90;;;;;;5034089;28;20940;-70
2023/01/29 06:55:34;;;;;;;28.90;13.80;;;-2.60;99.90;;;;;;5033945;28;20164;-71
2023/01/29 06:58:05;;;;;;;30.07;14.30;;;-2.50;99.90;;;;;;5033996;28;20191;-70
2023/01/29 07:00:30;;;;;;;34.40;15.50;;;-2.40;99.90;;;;;;5034368;28;20180;-70
2023/01/29 07:02:56;;;;;;;24.23;12.90;;;-2.30;99.90;;;;;;5033999;28;20403;-71
2023/01/29 07:05:21;;;;;;;37.20;15.93;;;-2.20;99.90;;;;;;5032522;28;20172;-70
2023/01/29 07:07:47;;;;;;;32.33;13.90;;;-2.20;99.90;;;;;;5033988;28;20179;-70
2023/01/29 07:10:12;;;;;;;31.97;14.37;;;-2.10;99.90;;;;;;5032375;28;20283;-70
2023/01/29 07:12:38;;;;;;;36.77;15.03;;;-2.00;99.90;;;;;;5033875;28;20669;-71
2023/01/29 07:15:04;;;;;;;32.27;14.50;;;-1.90;99.90;;;;;;5033456;28;20170;-70
2023/01/29 07:17:29;;;;;;;33.93;14.97;;;-1.90;99.90;;;;;;5032652;28;20168;-70
2023/01/29 07:19:54;;;;;;;37.90;14.37;;;-1.80;99.90;;;;;;5033701;28;20430;-70
2023/01/29 07:22:20;;;;;;;34.60;15.50;;;-1.80;99.90;;;;;;5033802;28;20249;-71
2023/01/29 07:24:47;;;;;;;31.60;12.77;;;-1.70;99.90;;;;;;5033316;28;20167;-71
2023/01/29 07:27:12;;;;;;;23.80;13.30;;;-1.60;99.90;;;;;;5033681;28;20196;-71
2023/01/29 07:29:38;;;;;;;37.23;15.90;;;-1.60;99.90;;;;;;5038417;28;20878;-71
2023/01/29 07:32:04;;;;;;;37.07;17.70;;;-1.50;99.90;;;;;;5053410;28;20169;-71
2023/01/29 07:34:29;;;;;;;32.90;14.97;;;-1.40;99.90;;;;;;5053198;28;20163;-70
2023/01/29 07:36:55;;;;;;;29.70;15.10;;;-1.40;99.90;;;;;;5053301;28;20167;-69
2023/01/29 07:39:21;;;;;;;28.53;16.40;;;-1.30;99.90;;;;;;5053297;28;20487;-70
2023/01/29 07:41:47;;;;;;;24.10;13.73;;;-1.20;99.90;;;;;;5052701;28;20235;-71
2023/01/29 07:44:12;;;;;;;25.03;13.30;;;-1.20;99.90;;;;;;5053024;28;20403;-70
2023/01/29 07:46:38;;;;;;;32.60;14.70;;;-1.10;99.90;;;;;;5036824;28;20697;-71
2023/01/29 07:49:03;;;;;;;32.57;16.10;;;-1.10;99.90;;;;;;5035701;28;20282;-69
2023/01/29 07:51:29;;;;;;;32.07;12.70;;;-1.10;99.90;;;;;;5064220;28;20241;-72
2023/01/29 07:53:54;;;;;;;32.80;14.83;;;-1.00;99.90;;;;;;5052146;28;20171;-70
2023/01/29 07:56:20;;;;;;;35.73;13.70;;;-0.80;99.90;;;;;;5052701;28;20178;-70
2023/01/29 07:58:45;;;;;;;32.93;15.43;;;-0.70;99.90;;;;;;5052702;28;20184;-70
2023/01/29 08:01:11;;;;;;;31.00;15.60;;;-0.60;99.90;;;;;;5052917;28;20174;-70
2023/01/29 08:03:36;;;;;;;26.13;13.47;;;-0.50;99.90;;;;;;5052871;28;20179;-70
2023/01/29 08:06:03;;;;;;;28.30;15.50;;;-0.40;99.90;;;;;;5052541;28;20171;-69
2023/01/29 08:08:28;;;;;;;35.07;13.67;;;-0.40;99.90;;;;;;5052359;28;20187;-69
2023/01/29 08:10:54;;;;;;;34.10;16.10;;;-0.40;99.90;;;;;;5052024;28;20479;-70
2023/01/29 08:13:19;;;;;;;37.27;14.50;;;-0.30;99.90;;;;;;5052547;28;20171;-71
2023/01/29 08:15:45;;;;;;;35.33;14.70;;;-0.20;99.90;;;;;;5052321;28;20178;-69
2023/01/29 08:18:11;;;;;;;25.83;14.50;;;-0.20;99.90;;;;;;5052546;28;20191;-69
2023/01/29 08:20:37;;;;;;;27.73;15.70;;;-0.10;99.90;;;;;;5052605;28;20199;-70
2023/01/29 08:23:06;;;;;;;32.27;14.67;;;-0.10;99.90;;;;;;5052512;28;20773;-70
2023/01/29 08:25:32;;;;;;;31.17;15.70;;;0.00;99.90;;;;;;5052152;28;20231;-69
2023/01/29 08:27:59;;;;;;;29.10;13.60;;;0.00;99.90;;;;;;5052192;28;20895;-69
2023/01/29 08:30:26;;;;;;;36.97;14.93;;;0.00;99.90;;;;;;5052102;28;20465;-70
2023/01/29 08:32:52;;;;;;;30.40;15.17;;;0.10;99.90;;;;;;5052292;28;20914;-69
2023/01/29 08:35:17;;;;;;;31.17;14.77;;;0.20;99.90;;;;;;5051961;28;20412;-69
2023/01/29 08:37:43;;;;;;;32.43;14.90;;;0.30;99.90;;;;;;5052242;28;20503;-70
2023/01/29 08:40:11;;;;;;;31.20;15.07;;;0.30;99.90;;;;;;5052033;28;20286;-71
2023/01/29 08:42:36;;;;;;;29.77;11.97;;;0.20;99.90;;;;;;5052152;28;20557;-71
2023/01/29 08:45:02;;;;;;;32.60;16.90;;;0.30;99.90;;;;;;5048756;28;20418;-71
2023/01/29 08:47:27;;;;;;;31.63;15.60;;;0.40;99.90;;;;;;5032166;28;20275;-71
2023/01/29 08:49:53;;;;;;;27.80;14.63;;;0.40;99.90;;;;;;5032025;28;20281;-70
2023/01/29 08:52:18;;;;;;;25.00;13.40;;;0.50;99.90;;;;;;5032081;28;20628;-71
2023/01/29 08:54:44;;;;;;;29.77;15.17;;;0.30;99.90;;;;;;5031875;28;20171;-71
2023/01/29 08:57:09;;;;;;;34.27;14.50;;;0.40;99.90;;;;;;5031918;28;20168;-71
2023/01/29 08:59:35;;;;;;;30.77;16.00;;;0.40;99.90;;;;;;5041974;28;20211;-71
2023/01/29 09:02:00;;;;;;;27.43;15.70;;;0.30;99.90;;;;;;5059812;28;20666;-71
2023/01/29 09:04:26;;;;;;;28.93;14.50;;;0.30;99.90;;;;;;5054591;28;20190;-71
2023/01/29 09:06:51;;;;;;;28.50;13.40;;;0.40;99.90;;;;;;5044679;28;20180;-70
2023/01/29 09:09:17;;;;;;;28.60;14.00;;;0.40;99.90;;;;;;5039864;28;20267;-71
2023/01/29 09:11:43;;;;;;;25.77;12.97;;;0.40;99.90;;;;;;5041676;28;20161;-71
2023/01/29 09:14:11;;;;;;;29.80;13.70;;;0.30;99.90;;;;;;5039833;28;20641;-71
2023/01/29 09:16:36;;;;;;;34.80;15.87;;;0.40;99.90;;;;;;5040179;28;20451;-71
2023/01/29 09:19:02;;;;;;;28.67;16.00;;;0.50;99.90;;;;;;5041436;28;20421;-70
2023/01/29 09:21:27;;;;;;;27.60;13.73;;;0.60;99.90;;;;;;5039736;28;20184;-70
2023/01/29 09:23:53;;;;;;;27.33;15.00;;;0.70;99.90;;;;;;5040536;28;20683;-70
2023/01/29 09:26:18;;;;;;;32.37;13.40;;;0.90;99.90;;;;;;5040745;28;20175;-70
2023/01/29 09:28:44;;;;;;;30.93;14.97;;;1.10;99.90;;;;;;5039968;28;20253;-70
2023/01/29 09:31:09;;;;;;;23.40;14.70;;;1.10;99.90;;;;;;5041041;28;20560;-70
2023/01/29 09:33:35;;;;;;;31.17;15.67;;;1.20;99.90;;;;;;5040600;28;20539;-70
2023/01/29 09:36:02;;;;;;;26.53;14.53;;;1.30;99.90;;;;;;5037805;28;20179;-70
2023/01/29 09:38:28;;;;;;;29.00;12.50;;;1.30;99.90;;;;;;5039460;28;20199;-70
2023/01/29 09:41:05;;;;;;;34.20;17.73;;;1.40;99.90;;;;;;5037896;28;20412;-70
2023/01/29 09:43:48;;;;;;;31.00;13.83;;;1.40;99.90;;;;;;5031577;28;20167;-69
2023/01/29 09:46:30;;;;;;;27.60;16.50;;;1.60;99.90;;;;;;5031140;28;20415;-70
2023/01/29 09:49:40;;;;;;;32.03;16.43;;;1.70;99.90;;;;;;5031534;28;20840;-70
2023/01/29 09:52:27;;;;;;;32.07;15.37;;;1.80;99.90;;;;;;5019575;28;20430;-70
2023/01/29 09:55:09;;;;;;;32.03;15.33;;;2.00;99.90;;;;;;5031088;28;20402;-70
2023/01/29 09:57:47;;;;;;;32.90;14.70;;;1.90;99.90;;;;;;5031526;28;20455;-71
2023/01/29 10:00:35;;;;;;;30.97;16.13;;;2.00;99.90;;;;;;5031422;28;20422;-71
2023/01/29 10:03:29;;;;;;;26.13;13.57;;;1.90;99.90;;;;;;5031335;28;20414;-71
2023/01/29 10:06:52;;;;;;;29.03;15.73;;;1.90;99.90;;;;;;5031119;28;20808;-71
2023/01/29 10:09:43;;;;;;;26.63;13.10;;;1.90;99.90;;;;;;5028485;28;20692;-71
2023/01/29 10:12:33;;;;;;;31.80;16.10;;;2.30;99.90;;;;;;5032373;28;20915;-71
2023/01/29 10:15:34;;;;;;;25.47;13.97;;;2.60;99.90;;;;;;5043713;28;20770;-72
2023/01/29 10:18:27;;;;;;;24.67;13.70;;;2.90;99.90;;;;;;5071794;28;20560;-70
2023/01/29 10:21:26;;;;;;;26.47;13.80;;;3.20;99.90;;;;;;5074577;28;20393;-71
2023/01/29 10:24:17;;;;;;;22.60;13.57;;;3.40;99.90;;;;;;5074554;28;20466;-69
2023/01/29 10:26:43;;;;;;;31.67;15.37;;;3.80;99.90;;;;;;5064541;28;20415;-70
2023/01/29 10:29:16;;;;;;;30.13;15.17;;;4.20;99.90;;;;;;5056942;28;20452;-70
2023/01/29 10:31:45;;;;;;;26.43;14.77;;;4.50;99.90;;;;;;5054527;28;20281;-71
2023/01/29 10:34:35;;;;;;;28.30;15.10;;;4.60;99.90;;;;;;5054221;28;20402;-70
2023/01/29 10:37:13;;;;;;;26.83;14.20;;;4.70;99.90;;;;;;5054501;28;20397;-71
2023/01/29 10:39:38;;;;;;;28.20;14.07;;;5.00;99.90;;;;;;5054114;28;20428;-70
2023/01/29 10:42:27;;;;;;;30.77;15.80;;;5.00;99.90;;;;;;5054425;28;20895;-71
2023/01/29 10:45:16;;;;;;;33.60;16.47;;;5.10;99.90;;;;;;5052199;28;20170;-71
2023/01/29 10:48:03;;;;;;;26.13;13.40;;;5.20;99.90;;;;;;5034513;28;20402;-72
2023/01/29 10:50:41;;;;;;;35.43;17.13;;;5.20;99.90;;;;;;5032965;28;20453;-71
2023/01/29 10:53:38;;;;;;;28.07;14.33;;;5.20;99.90;;;;;;5034293;28;20414;-71
2023/01/29 10:56:19;;;;;;;23.37;14.03;;;4.80;99.90;;;;;;5033887;28;20477;-72
2023/01/29 10:58:52;;;;;;;35.87;15.57;;;4.70;99.90;;;;;;5049475;28;20438;-71
2023/01/29 11:01:17;;;;;;;27.93;16.00;;;4.50;99.90;;;;;;5054055;28;20410;-72
2023/01/29 11:03:43;;;;;;;31.67;15.77;;;4.30;99.90;;;;;;5054123;28;20738;-70
2023/01/29 11:06:20;;;;;;;31.67;12.97;;;4.20;99.90;;;;;;5053525;28;20174;-71
2023/01/29 11:09:17;;;;;;;26.13;14.20;;;4.00;99.90;;;;;;5053970;28;20243;-71
2023/01/29 11:11:55;;;;;;;27.00;13.90;;;3.70;99.90;;;;;;5053828;28;20488;-72
2023/01/29 11:14:28;;;;;;;28.60;14.83;;;3.70;99.90;;;;;;5053664;28;20439;-71
2023/01/29 11:16:54;;;;;;;29.13;14.33;;;3.50;99.90;;;;;;5053770;28;20887;-70
2023/01/29 11:19:39;;;;;;;32.70;13.73;;;3.70;99.90;;;;;;5052383;28;20422;-71
2023/01/29 11:22:12;;;;;;;30.77;15.27;;;3.70;99.90;;;;;;5053596;28;20405;-71
2023/01/29 11:24:38;;;;;;;31.60;13.60;;;3.80;99.90;;;;;;5059431;28;20496;-71
2023/01/29 11:27:22;;;;;;;27.20;12.97;;;3.90;99.90;;;;;;5054082;28;20880;-71
2023/01/29 11:29:49;;;;;;;27.03;14.57;;;3.80;99.90;;;;;;5033668;28;20195;-70
2023/01/29 11:32:25;;;;;;;26.37;14.03;;;3.80;99.90;;;;;;5033593;28;20397;-70
2023/01/29 11:34:58;;;;;;;31.17;15.20;;;4.00;99.90;;;;;;5033398;28;20398;-70
2023/01/29 11:37:40;;;;;;;25.60;14.00;;;4.20;99.90;;;;;;5031999;28;20525;-69
2023/01/29 11:40:18;;;;;;;20.20;12.07;;;4.50;99.90;;;;;;5033439;28;20508;-70
2023/01/29 11:42:44;;;;;;;31.33;15.13;;;4.50;99.90;;;;;;5042729;28;20475;-70
2023/01/29 11:45:19;;;;;;;26.13;13.90;;;4.30;99.90;;;;;;5048461;28;20501;-69
2023/01/29 11:47:49;;;;;;;24.83;14.20;;;4.70;99.90;;;;;;5033166;28;20479;-70
2023/01/29 11:50:25;;;;;;;30.60;15.00;;;4.90;99.90;;;;;;5035736;28;20948;-70
2023/01/29 11:52:50;;;;;;;25.03;13.80;;;5.30;99.90;;;;;;5033155;28;20915;-71
2023/01/29 11:55:23;;;;;;;23.57;13.20;;;5.50;99.90;;;;;;5032918;28;20415;-71
2023/01/29 11:57:53;;;;;;;25.60;13.77;;;5.50;99.90;;;;;;5046406;28;20217;-70
2023/01/29 12:00:24;;;;;;;23.63;13.70;;;5.70;99.90;;;;;;5052819;28;20829;-70
2023/01/29 12:03:15;;;;;;;22.80;12.97;;;5.70;99.90;;;;;;5051609;28;20479;-69
2023/01/29 12:05:53;;;;;;;26.50;13.80;;;5.50;99.90;;;;;;5052466;28;20428;-70
2023/01/29 12:08:21;;;;;;;36.17;16.20;;;5.40;99.90;;;;;;5052741;28;20401;-70
2023/01/29 12:10:47;;;;;;;23.67;13.70;;;5.50;99.90;;;;;;5052411;28;20556;-71
2023/01/29 12:13:14;;;;;;;19.63;11.83;;;5.70;99.90;;;;;;5052884;28;20504;-71
2023/01/29 12:15:41;;;;;;;25.57;14.97;;;5.30;99.90;;;;;;5052326;28;20166;-71
2023/01/29 12:18:13;;;;;;;26.47;12.77;;;4.90;99.90;;;;;;5042716;28;20418;-71
2023/01/29 12:21:02;;;;;;;26.53;14.07;;;4.70;99.90;;;;;;5032634;28;20446;-71
2023/01/29 12:23:51;;;;;;;24.53;13.47;;;4.40;99.90;;;;;;5032557;28;20420;-70
2023/01/29 12:26:22;;;;;;;25.20;13.10;;;4.20;99.90;;;;;;5032273;28;20460;-69
2023/01/29 12:29:03;;;;;;;23.07;12.93;;;4.00;99.90;;;;;;5032494;28;20434;-69
2023/01/29 12:31:40;;;;;;;18.90;13.10;;;4.10;99.90;;;;;;5032354;28;20446;-69
2023/01/29 12:34:42;;;;;;;27.23;12.40;;;4.20;99.90;;;;;;5054646;28;20405;-69
2023/01/29 12:37:38;;;;;;;23.20;11.40;;;4.60;99.90;;;;;;5072412;28;20427;-71
2023/01/29 12:40:14;;;;;;;27.50;15.87;;;4.90;99.90;;;;;;5071754;28;20424;-71
2023/01/29 12:42:45;;;;;;;25.37;14.27;;;5.20;99.90;;;;;;5072195;28;20430;-70
2023/01/29 12:45:17;;;;;;;22.97;12.07;;;5.70;99.90;;;;;;5067965;28;20758;-70
2023/01/29 12:47:48;;;;;;;26.37;13.07;;;5.90;99.90;;;;;;5050682;28;20496;-71
2023/01/29 12:50:17;;;;;;;26.03;12.50;;;6.10;99.90;;;;;;5051935;28;20460;-70
2023/01/29 12:52:51;;;;;;;28.07;13.10;;;6.10;99.90;;;;;;5051928;28;20405;-72
2023/01/29 12:55:41;;;;;;;24.83;13.73;;;6.30;99.90;;;;;;5051866;28;20832;-70
2023/01/29 12:58:28;;;;;;;21.23;12.13;;;6.60;99.90;;;;;;5048745;28;20425;-70
2023/01/29 13:00:55;;;;;;;24.67;13.40;;;8.50;99.90;;;;;;5052373;28;20397;-70
2023/01/29 13:03:51;;;;;;;22.10;12.63;;;9.90;99.90;;;;;;5051833;28;20413;-71
2023/01/29 13:06:24;;;;;;;23.60;14.43;;;11.10;92.90;;;;;;5051659;28;20398;-71
2023/01/29 13:08:53;;;;;;;41.73;12.70;;;11.10;85.50;;;;;;5051812;28;20736;-70
2023/01/29 13:11:28;;;;;;;19.37;12.90;;;10.80;82.30;;;;;;5051782;28;20460;-70
2023/01/29 13:13:58;;;;;;;24.50;14.00;;;10.20;78.80;;;;;;5051691;28;20409;-70
2023/01/29 13:16:36;;;;;;;26.13;14.57;;;9.40;79.90;;;;;;5050788;28;20401;-70
2023/01/29 13:19:05;;;;;;;24.27;13.13;;;8.40;86.10;;;;;;5031909;28;20509;-73
2023/01/29 13:21:37;;;;;;;20.67;12.60;;;7.90;90.70;;;;;;5031748;28;20410;-72